Time;durP1;ratioP1;P1;durP2;ratioP2;P2;SDS_P1;SDS_P2;PMS_P1;PMS_P2;Temp;Humidity;BMP_temperature;BMP_pressure;BME280_temperature;BME280_humidity;BME280_pressure;Samples;Min_cycle;Max_cycle;Signal;HPM_P1;HPM_P2
2022/07/28 00:01:54;;;;;;;;;;;13.40;99.90;;;;;;5136679;27;19923;-68
2022/07/28 00:04:19;;;;;;;;;;;13.30;99.90;;;;;;5136471;27;19974;-69
2022/07/28 00:06:45;;;;;;;;;;;13.20;99.90;;;;;;5136613;27;19931;-69
2022/07/28 00:09:10;;;;;;;;;;;13.30;99.90;;;;;;5136455;27;20462;-68
2022/07/28 00:11:36;;;;;;;;;;;13.10;99.90;;;;;;5136417;27;20018;-68
2022/07/28 00:14:02;;;;;;;;;;;13.00;99.90;;;;;;5136306;27;20343;-70
2022/07/28 00:16:27;;;;;;;;;;;12.90;99.90;;;;;;5136288;27;20010;-68
2022/07/28 00:18:53;;;;;;;;;;;12.90;99.90;;;;;;5136095;27;19977;-69
2022/07/28 00:21:18;;;;;;;;;;;12.80;99.90;;;;;;5117610;27;19972;-70
2022/07/28 00:23:44;;;;;;;;;;;12.80;99.90;;;;;;5136213;27;19969;-68
2022/07/28 00:26:11;;;;;;;;;;;13.10;99.90;;;;;;5117776;27;19933;-69
2022/07/28 00:28:37;;;;;;;;;;;12.90;99.90;;;;;;5135962;27;19931;-69
2022/07/28 00:31:03;;;;;;;;;;;12.80;99.90;;;;;;5135913;27;19923;-69
2022/07/28 00:33:28;;;;;;;;;;;12.80;99.90;;;;;;5152296;27;19976;-70
2022/07/28 00:35:54;;;;;;;;;;;12.80;99.90;;;;;;5135810;27;19927;-70
2022/07/28 00:38:19;;;;;;;;;;;12.80;99.90;;;;;;5135972;27;19927;-69
2022/07/28 00:43:29;;;;;;;;;;;11.90;99.90;;;;;;5135702;27;20013;-70
2022/07/28 00:45:54;;;;;;;;;;;12.80;99.90;;;;;;5135651;27;19924;-69
2022/07/28 00:48:20;;;;;;;;;;;12.80;99.90;;;;;;5117257;27;20010;-68
2022/07/28 00:50:46;;;;;;;;;;;12.90;99.90;;;;;;5135744;27;19931;-68
2022/07/28 00:53:11;;;;;;;;;;;13.00;99.90;;;;;;5117665;27;19976;-70
2022/07/28 00:55:38;;;;;;;;;;;13.10;99.90;;;;;;5135538;27;19923;-68
2022/07/28 00:58:04;;;;;;;;;;;13.00;99.90;;;;;;5151809;27;19924;-69
2022/07/28 01:00:29;;;;;;;;;;;12.80;99.90;;;;;;5135556;27;19983;-68
2022/07/28 01:02:55;;;;;;;;;;;12.80;99.90;;;;;;5135241;27;19924;-68
2022/07/28 01:05:21;;;;;;;;;;;12.80;99.90;;;;;;5135209;27;20377;-68
2022/07/28 01:08:00;;;;;;;;;;;12.70;99.90;;;;;;5135440;27;19984;-69
2022/07/28 01:10:41;;;;;;;;;;;12.70;99.90;;;;;;5135313;27;19971;-69
2022/07/28 01:13:12;;;;;;;;;;;12.70;99.90;;;;;;5135030;27;20358;-69
2022/07/28 01:15:43;;;;;;;;;;;12.70;99.90;;;;;;5135101;27;19923;-68
2022/07/28 01:18:17;;;;;;;;;;;12.70;99.90;;;;;;5135297;27;20406;-68
2022/07/28 01:20:46;;;;;;;;;;;12.70;99.90;;;;;;5135157;27;19924;-67
2022/07/28 01:23:23;;;;;;;;;;;12.60;99.90;;;;;;5134952;27;20366;-69
2022/07/28 01:26:05;;;;;;;;;;;12.60;99.90;;;;;;5134992;27;19923;-69
2022/07/28 01:28:49;;;;;;;;;;;12.60;99.90;;;;;;5135081;27;20345;-68
2022/07/28 01:31:17;;;;;;;;;;;12.60;99.90;;;;;;5134945;27;20010;-69
2022/07/28 01:33:47;;;;;;;;;;;12.70;99.90;;;;;;5134232;27;19968;-69
2022/07/28 01:36:15;;;;;;;;;;;12.70;99.90;;;;;;5134877;27;19924;-68
2022/07/28 01:38:41;;;;;;;;;;;12.60;99.90;;;;;;5134755;27;19963;-67
2022/07/28 01:41:10;;;;;;;;;;;12.60;99.90;;;;;;5116946;28;20022;-70
2022/07/28 01:43:38;;;;;;;;;;;12.60;99.90;;;;;;5134885;27;19928;-68
2022/07/28 01:46:04;;;;;;;;;;;12.60;99.90;;;;;;5134579;27;19927;-68
2022/07/28 01:48:30;;;;;;;;;;;12.60;99.90;;;;;;5134690;27;19923;-68
2022/07/28 01:50:56;;;;;;;;;;;11.90;99.90;;;;;;5134686;28;19930;-68
2022/07/28 01:53:22;;;;;;;;;;;12.60;99.90;;;;;;5134649;28;19931;-68
2022/07/28 01:55:49;;;;;;;;;;;12.70;99.90;;;;;;5134749;28;19975;-69
2022/07/28 01:58:17;;;;;;;;;;;12.60;99.90;;;;;;5134689;28;20302;-70
2022/07/28 02:00:44;;;;;;;;;;;12.60;99.90;;;;;;5151085;27;19923;-68
2022/07/28 02:03:10;;;;;;;;;;;12.60;99.90;;;;;;5134550;28;19924;-69
2022/07/28 02:05:36;;;;;;;;;;;12.60;99.90;;;;;;5134589;28;19930;-69
2022/07/28 02:08:03;;;;;;;;;;;12.60;99.90;;;;;;5134409;28;19923;-68
2022/07/28 02:10:30;;;;;;;;;;;12.50;99.90;;;;;;5134442;28;19930;-69
2022/07/28 02:12:57;;;;;;;;;;;12.40;99.90;;;;;;5150886;27;19923;-71
2022/07/28 02:15:25;;;;;;;;;;;12.50;99.90;;;;;;5134379;28;20394;-70
2022/07/28 02:17:51;;;;;;;;;;;12.40;99.90;;;;;;5134493;28;19935;-68
2022/07/28 02:20:17;;;;;;;;;;;12.40;99.90;;;;;;5116341;28;19930;-69
2022/07/28 02:22:44;;;;;;;;;;;12.30;99.90;;;;;;5134224;28;19923;-70
2022/07/28 02:25:09;;;;;;;;;;;12.30;99.90;;;;;;5150569;27;19935;-71
2022/07/28 02:27:38;;;;;;;;;;;12.30;99.90;;;;;;5134104;28;19924;-68
2022/07/28 02:30:15;;;;;;;;;;;12.30;99.90;;;;;;5134343;28;19924;-68
2022/07/28 02:32:47;;;;;;;;;;;12.30;99.90;;;;;;5116208;28;19976;-69
2022/07/28 02:35:15;;;;;;;;;;;12.40;99.90;;;;;;5134255;28;19923;-69
2022/07/28 02:37:48;;;;;;;;;;;12.30;99.90;;;;;;5134158;28;19923;-68
2022/07/28 02:40:15;;;;;;;;;;;12.30;99.90;;;;;;5134363;28;19924;-68
2022/07/28 02:42:43;;;;;;;;;;;12.30;99.90;;;;;;5134245;28;19932;-68
2022/07/28 02:45:10;;;;;;;;;;;12.30;99.90;;;;;;5118145;27;20305;-68
2022/07/28 02:47:37;;;;;;;;;;;12.30;99.90;;;;;;5138070;27;19930;-69
2022/07/28 02:50:04;;;;;;;;;;;12.30;99.90;;;;;;5137852;27;20022;-69
2022/07/28 02:52:29;;;;;;;;;;;12.20;99.90;;;;;;5138107;27;19986;-70
2022/07/28 02:54:56;;;;;;;;;;;12.20;99.90;;;;;;5119964;27;19963;-70
2022/07/28 02:57:23;;;;;;;;;;;11.30;99.90;;;;;;5138050;27;19923;-70
2022/07/28 02:59:49;;;;;;;;;;;12.20;99.90;;;;;;5137831;27;19923;-68
2022/07/28 03:02:17;;;;;;;;;;;12.40;99.90;;;;;;5153979;27;19959;-68
2022/07/28 03:04:58;;;;;;;;;;;12.20;99.90;;;;;;5137655;27;20390;-70
2022/07/28 03:07:28;;;;;;;;;;;12.20;99.90;;;;;;5137726;27;20396;-69
2022/07/28 03:09:54;;;;;;;;;;;12.20;99.90;;;;;;5137742;27;19923;-69
2022/07/28 03:12:19;;;;;;;;;;;12.00;99.90;;;;;;5137563;27;19923;-68
2022/07/28 03:14:45;;;;;;;;;;;12.10;99.90;;;;;;5153795;27;19923;-68
2022/07/28 03:17:10;;;;;;;;;;;12.10;99.90;;;;;;5137496;27;19930;-69
2022/07/28 03:19:36;;;;;;;;;;;12.30;99.90;;;;;;5118621;27;19924;-69
2022/07/28 03:22:02;;;;;;;;;;;12.00;99.90;;;;;;5137574;27;19927;-69
2022/07/28 03:24:37;;;;;;;;;;;12.00;99.90;;;;;;5137476;27;20409;-68
2022/07/28 03:27:08;;;;;;;;;;;11.80;99.90;;;;;;5137298;27;20119;-69
2022/07/28 03:29:35;;;;;;;;;;;11.70;99.90;;;;;;5137155;27;20006;-68
2022/07/28 03:32:00;;;;;;;;;;;11.80;99.90;;;;;;5118977;27;20010;-68
2022/07/28 03:34:27;;;;;;;;;;;12.10;99.90;;;;;;5137029;27;20056;-69
2022/07/28 03:36:55;;;;;;;;;;;11.80;99.90;;;;;;5137467;27;19931;-69
2022/07/28 03:39:23;;;;;;;;;;;11.80;99.90;;;;;;5136337;27;20012;-70
2022/07/28 03:41:51;;;;;;;;;;;11.80;99.90;;;;;;5137033;27;19976;-69
2022/07/28 03:44:16;;;;;;;;;;;11.70;99.90;;;;;;5137044;27;20332;-70
2022/07/28 03:46:43;;;;;;;;;;;11.70;99.90;;;;;;5118055;27;19924;-69
2022/07/28 03:49:08;;;;;;;;;;;11.70;99.90;;;;;;5135538;27;19930;-71
2022/07/28 03:51:34;;;;;;;;;;;11.60;99.90;;;;;;5153320;27;19924;-68
2022/07/28 03:54:00;;;;;;;;;;;11.90;99.90;;;;;;5136843;27;20410;-68
2022/07/28 03:56:25;;;;;;;;;;;11.70;99.90;;;;;;5135907;27;19923;-68
2022/07/28 03:58:51;;;;;;;;;;;12.00;99.90;;;;;;5136664;27;19968;-68
2022/07/28 04:01:16;;;;;;;;;;;11.80;99.90;;;;;;5136487;27;20431;-70
2022/07/28 04:03:42;;;;;;;;;;;11.90;99.90;;;;;;5152883;27;19924;-68
2022/07/28 04:06:07;;;;;;;;;;;11.90;99.90;;;;;;5136659;27;19928;-68
2022/07/28 04:08:33;;;;;;;;;;;12.00;99.90;;;;;;5136484;27;19930;-69
2022/07/28 04:10:58;;;;;;;;;;;12.00;99.90;;;;;;5117740;27;20339;-70
2022/07/28 04:13:24;;;;;;;;;;;11.80;99.90;;;;;;5136361;27;19923;-68
2022/07/28 04:15:49;;;;;;;;;;;12.00;99.90;;;;;;5117973;27;19927;-69
2022/07/28 04:18:15;;;;;;;;;;;12.00;99.90;;;;;;5136193;27;19963;-69
2022/07/28 04:20:40;;;;;;;;;;;12.00;99.90;;;;;;5118009;27;19923;-68
2022/07/28 04:23:06;;;;;;;;;;;12.00;99.90;;;;;;5136328;27;19923;-70
2022/07/28 04:25:32;;;;;;;;;;;12.00;99.90;;;;;;5136290;27;19924;-69
2022/07/28 04:27:57;;;;;;;;;;;11.10;99.90;;;;;;5084911;28;20342;-68
2022/07/28 04:30:23;;;;;;;;;;;12.00;99.90;;;;;;5115416;28;20378;-68
2022/07/28 04:32:49;;;;;;;;;;;12.00;99.90;;;;;;5115252;28;20022;-68
2022/07/28 04:35:16;;;;;;;;;;;12.00;99.90;;;;;;5115288;28;19924;-68
2022/07/28 04:37:42;;;;;;;;;;;12.10;99.90;;;;;;5115565;28;20389;-68
2022/07/28 04:40:09;;;;;;;;;;;12.00;99.90;;;;;;5097213;28;19927;-67
2022/07/28 04:42:35;;;;;;;;;;;10.60;99.90;;;;;;5115221;28;19985;-69
2022/07/28 04:45:01;;;;;;;;;;;12.00;99.90;;;;;;5097240;28;19988;-69
2022/07/28 04:47:28;;;;;;;;;;;11.90;99.90;;;;;;5096980;28;19977;-69
2022/07/28 04:49:54;;;;;;;;;;;11.90;99.90;;;;;;5114930;28;20022;-68
2022/07/28 04:52:20;;;;;;;;;;;11.90;99.90;;;;;;5115213;28;20378;-68
2022/07/28 04:54:46;;;;;;;;;;;11.90;99.90;;;;;;5096955;28;19924;-68
2022/07/28 04:57:12;;;;;;;;;;;11.80;99.90;;;;;;5097077;28;19924;-70
2022/07/28 04:59:38;;;;;;;;;;;11.90;99.90;;;;;;5114944;28;19931;-69
2022/07/28 05:02:03;;;;;;;;;;;11.80;99.90;;;;;;5115133;28;19924;-70
2022/07/28 05:04:29;;;;;;;;;;;11.80;99.90;;;;;;5114721;28;20019;-68
2022/07/28 05:06:55;;;;;;;;;;;11.90;99.90;;;;;;5097064;28;20010;-70
2022/07/28 05:09:20;;;;;;;;;;;11.90;99.90;;;;;;5114811;28;20277;-68
2022/07/28 05:11:46;;;;;;;;;;;11.80;99.90;;;;;;5096606;28;19924;-67
2022/07/28 05:14:12;;;;;;;;;;;11.90;99.90;;;;;;5114670;28;19923;-68
2022/07/28 05:16:37;;;;;;;;;;;11.90;99.90;;;;;;5114713;28;19923;-70
2022/07/28 05:19:03;;;;;;;;;;;11.90;99.90;;;;;;5114554;28;20338;-68
2022/07/28 05:21:29;;;;;;;;;;;11.90;99.90;;;;;;5114468;28;19927;-68
2022/07/28 05:23:54;;;;;;;;;;;11.90;99.90;;;;;;5096818;28;19978;-68
2022/07/28 05:26:20;;;;;;;;;;;11.90;99.90;;;;;;5115791;27;19935;-68
2022/07/28 05:28:46;;;;;;;;;;;11.80;99.90;;;;;;5116863;27;19930;-68
2022/07/28 05:31:11;;;;;;;;;;;11.90;99.90;;;;;;5134868;27;20378;-70
2022/07/28 05:33:37;;;;;;;;;;;11.80;99.90;;;;;;5134882;27;19923;-70
2022/07/28 05:36:02;;;;;;;;;;;11.80;99.90;;;;;;5116820;28;19971;-69
2022/07/28 05:38:29;;;;;;;;;;;11.80;99.90;;;;;;5135013;27;19982;-70
2022/07/28 05:40:54;;;;;;;;;;;11.80;99.90;;;;;;5135117;27;19930;-68
2022/07/28 05:43:20;;;;;;;;;;;11.80;99.90;;;;;;5134743;27;19927;-68
2022/07/28 05:45:45;;;;;;;;;;;12.40;99.90;;;;;;5134803;27;19924;-70
2022/07/28 05:48:11;;;;;;;;;;;12.70;99.90;;;;;;5116591;28;19930;-70
2022/07/28 05:50:37;;;;;;;;;;;12.00;99.90;;;;;;5134728;28;19927;-68
2022/07/28 05:53:03;;;;;;;;;;;12.10;99.90;;;;;;5116524;28;19924;-68
2022/07/28 05:55:28;;;;;;;;;;;12.10;99.90;;;;;;5134852;28;19968;-68
2022/07/28 05:57:54;;;;;;;;;;;12.20;99.90;;;;;;5134637;28;19923;-68
2022/07/28 06:00:21;;;;;;;;;;;12.30;99.90;;;;;;5150674;27;19934;-69
2022/07/28 06:02:50;;;;;;;;;;;12.30;99.90;;;;;;5134581;28;19924;-68
2022/07/28 06:05:16;;;;;;;;;;;12.40;99.90;;;;;;5134646;28;19930;-68
2022/07/28 06:07:42;;;;;;;;;;;12.50;99.90;;;;;;5134472;28;20382;-68
2022/07/28 06:10:08;;;;;;;;;;;12.50;99.90;;;;;;5116273;28;19980;-68
2022/07/28 06:12:43;;;;;;;;;;;12.60;99.90;;;;;;5134531;28;19923;-68
2022/07/28 06:15:12;;;;;;;;;;;12.60;99.90;;;;;;5134483;28;19923;-68
2022/07/28 06:17:38;;;;;;;;;;;12.70;99.90;;;;;;5134455;28;19992;-68
2022/07/28 06:20:04;;;;;;;;;;;12.80;99.90;;;;;;5136586;27;20267;-69
2022/07/28 06:22:39;;;;;;;;;;;12.60;99.90;;;;;;5137202;27;19924;-68
2022/07/28 06:25:05;;;;;;;;;;;12.90;99.90;;;;;;5138606;27;19966;-69
2022/07/28 06:27:30;;;;;;;;;;;12.70;99.90;;;;;;5138233;27;19981;-70
2022/07/28 06:29:56;;;;;;;;;;;13.00;99.90;;;;;;5138319;27;20400;-70
2022/07/28 06:32:21;;;;;;;;;;;13.00;99.90;;;;;;5138474;27;19923;-70
2022/07/28 06:34:47;;;;;;;;;;;13.00;99.90;;;;;;5138194;27;20060;-69
2022/07/28 06:37:12;;;;;;;;;;;13.20;99.90;;;;;;5120421;27;19990;-69
2022/07/28 06:39:38;;;;;;;;;;;13.20;99.90;;;;;;5138365;27;19971;-68
2022/07/28 06:42:03;;;;;;;;;;;13.30;99.90;;;;;;5138175;27;19945;-68
2022/07/28 06:44:29;;;;;;;;;;;13.40;99.90;;;;;;5120098;27;19923;-68
2022/07/28 06:46:57;;;;;;;;;;;13.40;99.90;;;;;;5138166;27;20294;-69
2022/07/28 06:49:22;;;;;;;;;;;13.50;99.90;;;;;;5137928;27;19986;-68
2022/07/28 06:51:48;;;;;;;;;;;13.50;99.90;;;;;;5137905;27;20005;-69
2022/07/28 06:54:13;;;;;;;;;;;13.50;99.90;;;;;;5138161;27;19923;-70
2022/07/28 06:56:39;;;;;;;;;;;13.60;99.90;;;;;;5119869;27;20027;-68
2022/07/28 06:59:04;;;;;;;;;;;13.60;99.90;;;;;;5137882;27;19974;-69
2022/07/28 07:01:30;;;;;;;;;;;13.70;99.90;;;;;;5137929;27;20303;-70
2022/07/28 07:03:55;;;;;;;;;;;13.70;99.90;;;;;;5137759;27;19931;-71
2022/07/28 07:06:21;;;;;;;;;;;13.80;99.90;;;;;;5137576;27;19923;-68
2022/07/28 07:08:47;;;;;;;;;;;13.80;99.90;;;;;;5137428;27;20034;-70
2022/07/28 07:11:13;;;;;;;;;;;13.70;99.90;;;;;;5137696;27;19923;-69
2022/07/28 07:13:38;;;;;;;;;;;13.90;99.90;;;;;;5118857;27;19924;-67
2022/07/28 07:16:04;;;;;;;;;;;14.00;99.90;;;;;;5137563;27;19928;-69
2022/07/28 07:18:29;;;;;;;;;;;14.10;99.90;;;;;;5119149;27;19928;-68
2022/07/28 07:20:55;;;;;;;;;;;14.10;99.90;;;;;;5137398;27;19930;-69
2022/07/28 07:23:21;;;;;;;;;;;14.20;99.90;;;;;;5137263;27;19923;-69
2022/07/28 07:25:47;;;;;;;;;;;14.30;99.90;;;;;;5119381;27;20429;-68
2022/07/28 07:28:12;;;;;;;;;;;14.30;99.90;;;;;;5118718;27;19923;-68
2022/07/28 07:30:38;;;;;;;;;;;14.40;99.90;;;;;;5136315;27;19924;-68
2022/07/28 07:33:03;;;;;;;;;;;14.40;99.90;;;;;;5136933;27;20271;-69
2022/07/28 07:35:29;;;;;;;;;;;14.50;99.90;;;;;;5119029;27;20379;-68
2022/07/28 07:37:54;;;;;;;;;;;14.60;99.90;;;;;;5137074;27;19996;-68
2022/07/28 07:40:20;;;;;;;;;;;14.60;99.90;;;;;;5137434;27;19923;-69
2022/07/28 07:42:46;;;;;;;;;;;14.70;99.90;;;;;;5137036;27;19977;-68
2022/07/28 07:45:11;;;;;;;;;;;14.80;99.90;;;;;;5137043;27;19956;-68
2022/07/28 07:47:37;;;;;;;;;;;14.80;99.90;;;;;;5136910;27;20034;-69
2022/07/28 07:50:02;;;;;;;;;;;14.90;99.90;;;;;;5118048;27;19924;-69
2022/07/28 07:52:28;;;;;;;;;;;14.90;99.90;;;;;;5101743;27;19924;-68
2022/07/28 07:54:53;;;;;;;;;;;15.00;99.90;;;;;;5136638;27;19923;-68
2022/07/28 07:57:19;;;;;;;;;;;15.10;99.90;;;;;;5136866;27;20382;-69
2022/07/28 07:59:44;;;;;;;;;;;15.10;99.90;;;;;;5136740;27;20305;-69
2022/07/28 08:02:10;;;;;;;;;;;15.10;99.90;;;;;;5136733;27;19928;-68
2022/07/28 08:04:36;;;;;;;;;;;15.30;99.90;;;;;;5118550;27;19947;-68
2022/07/28 08:07:01;;;;;;;;;;;15.20;99.90;;;;;;5136436;27;20263;-70
2022/07/28 08:09:27;;;;;;;;;;;15.30;99.90;;;;;;5136281;27;19923;-69
2022/07/28 08:11:52;;;;;;;;;;;15.40;99.90;;;;;;5118500;27;19996;-69
2022/07/28 08:14:18;;;;;;;;;;;15.40;99.90;;;;;;5136507;27;19923;-69
2022/07/28 08:16:44;;;;;;;;;;;15.40;99.90;;;;;;5136383;27;19923;-69
2022/07/28 08:19:09;;;;;;;;;;;15.50;99.90;;;;;;5136278;27;20017;-69
2022/07/28 08:21:35;;;;;;;;;;;15.60;99.90;;;;;;5118075;27;19923;-68
2022/07/28 08:24:02;;;;;;;;;;;15.60;99.90;;;;;;5136094;27;19927;-68
2022/07/28 08:26:28;;;;;;;;;;;15.70;99.90;;;;;;5136144;27;19928;-71
2022/07/28 08:28:54;;;;;;;;;;;15.70;99.90;;;;;;5136200;27;19930;-68
2022/07/28 08:31:20;;;;;;;;;;;15.70;99.90;;;;;;5117933;27;19923;-69
2022/07/28 08:33:47;;;;;;;;;;;15.80;99.90;;;;;;5136055;27;20026;-68
2022/07/28 08:36:12;;;;;;;;;;;15.80;99.90;;;;;;5152329;27;19967;-70
2022/07/28 08:38:38;;;;;;;;;;;15.80;99.90;;;;;;5117733;27;19966;-69
2022/07/28 08:41:05;;;;;;;;;;;15.80;99.90;;;;;;5135962;27;19923;-69
2022/07/28 08:43:38;;;;;;;;;;;15.80;99.90;;;;;;5135572;27;19927;-68
2022/07/28 08:46:05;;;;;;;;;;;15.80;99.90;;;;;;5152229;27;19976;-69
2022/07/28 08:48:31;;;;;;;;;;;15.90;99.90;;;;;;5135704;27;19934;-69
2022/07/28 08:51:02;;;;;;;;;;;15.90;99.90;;;;;;5135645;27;19923;-69
2022/07/28 08:53:29;;;;;;;;;;;15.90;99.90;;;;;;5135596;27;19969;-68
2022/07/28 08:55:58;;;;;;;;;;;15.90;99.90;;;;;;5135766;27;19923;-68
2022/07/28 08:58:24;;;;;;;;;;;15.90;99.90;;;;;;5117327;27;19930;-68
2022/07/28 09:00:49;;;;;;;;;;;16.00;99.90;;;;;;5135490;27;19923;-70
2022/07/28 09:03:15;;;;;;;;;;;16.00;99.90;;;;;;5151778;27;19949;-69
2022/07/28 09:05:42;;;;;;;;;;;16.00;99.90;;;;;;5135378;27;19985;-68
2022/07/28 09:08:07;;;;;;;;;;;16.30;99.90;;;;;;5100162;27;19927;-70
2022/07/28 09:10:33;;;;;;;;;;;16.10;99.90;;;;;;5135517;27;20353;-68
2022/07/28 09:12:58;;;;;;;;;;;16.20;99.90;;;;;;5135275;27;19930;-68
2022/07/28 09:15:24;;;;;;;;;;;16.40;99.90;;;;;;5135284;27;19923;-68
2022/07/28 09:17:50;;;;;;;;;;;16.40;99.90;;;;;;5135231;27;19934;-69
2022/07/28 09:20:15;;;;;;;;;;;16.50;99.90;;;;;;5135116;27;19946;-69
2022/07/28 09:22:55;;;;;;;;;;;16.50;99.90;;;;;;5135166;27;19975;-70
2022/07/28 09:25:21;;;;;;;;;;;16.50;99.90;;;;;;5135235;27;19931;-68
2022/07/28 09:27:46;;;;;;;;;;;16.50;99.90;;;;;;5102760;28;19931;-68
2022/07/28 09:30:12;;;;;;;;;;;16.50;99.90;;;;;;5114387;28;19924;-70
2022/07/28 09:32:38;;;;;;;;;;;16.40;99.90;;;;;;5095309;28;20394;-68
2022/07/28 09:35:16;;;;;;;;;;;16.40;99.90;;;;;;5114346;28;19924;-69
2022/07/28 09:37:42;;;;;;;;;;;16.50;99.90;;;;;;5114239;28;19924;-70
2022/07/28 09:40:11;;;;;;;;;;;16.50;99.90;;;;;;5114514;28;19935;-69
2022/07/28 09:42:46;;;;;;;;;;;16.40;99.90;;;;;;5096410;28;19970;-69
2022/07/28 09:45:12;;;;;;;;;;;16.40;99.90;;;;;;5114335;28;20328;-70
2022/07/28 09:47:39;;;;;;;;;;;16.50;99.90;;;;;;5096288;28;19930;-70
2022/07/28 09:50:05;;;;;;;;;;;16.50;99.90;;;;;;5114012;28;20374;-70
2022/07/28 09:52:32;;;;;;;;;;;16.50;99.90;;;;;;5114363;28;19928;-69
2022/07/28 09:55:01;;;;;;;;;;;16.50;99.90;;;;;;5113535;28;19931;-69
2022/07/28 09:57:27;;;;;;;;;;;16.50;99.90;;;;;;5114187;28;19924;-69
2022/07/28 09:59:53;;;;;;;;;;;16.60;99.90;;;;;;5114078;28;20421;-68
2022/07/28 10:02:37;;;;;;;;;;;16.60;99.90;;;;;;5114289;28;20374;-69
2022/07/28 10:05:03;;;;;;;;;;;16.70;99.90;;;;;;5113918;28;20386;-71
2022/07/28 10:07:29;;;;;;;;;;;16.80;99.90;;;;;;5114082;28;19969;-70
2022/07/28 10:09:57;;;;;;;;;;;17.00;99.90;;;;;;5113943;28;19928;-68
2022/07/28 10:12:24;;;;;;;;;;;16.60;99.90;;;;;;5113968;28;19923;-69
2022/07/28 10:14:50;;;;;;;;;;;17.30;99.90;;;;;;5114036;28;19931;-69
2022/07/28 10:17:28;;;;;;;;;;;17.40;99.90;;;;;;5113912;28;19931;-69
2022/07/28 10:19:56;;;;;;;;;;;17.40;99.90;;;;;;5114066;28;20404;-71
2022/07/28 10:22:23;;;;;;;;;;;17.30;99.90;;;;;;5114167;28;19975;-69
2022/07/28 10:24:51;;;;;;;;;;;17.40;99.90;;;;;;5096140;28;20010;-69
2022/07/28 10:27:18;;;;;;;;;;;17.40;99.90;;;;;;5123373;28;19930;-69
2022/07/28 10:29:44;;;;;;;;;;;17.40;99.90;;;;;;5150358;27;19983;-69
2022/07/28 10:32:10;;;;;;;;;;;17.40;99.90;;;;;;5134058;28;20022;-69
2022/07/28 10:34:43;;;;;;;;;;;17.50;99.90;;;;;;5115691;28;19923;-69
2022/07/28 10:37:12;;;;;;;;;;;17.40;99.90;;;;;;5134131;27;20403;-68
2022/07/28 10:39:43;;;;;;;;;;;17.40;99.90;;;;;;5134346;28;19924;-68
2022/07/28 10:42:12;;;;;;;;;;;17.40;99.90;;;;;;5134215;28;19967;-69
2022/07/28 10:44:37;;;;;;;;;;;17.50;99.90;;;;;;5150440;27;20014;-69
2022/07/28 10:47:07;;;;;;;;;;;17.50;99.90;;;;;;5134034;28;19967;-69
2022/07/28 10:49:34;;;;;;;;;;;17.50;99.90;;;;;;5150456;27;19930;-69
2022/07/28 10:52:00;;;;;;;;;;;17.50;99.90;;;;;;5134289;28;19924;-69
2022/07/28 10:54:26;;;;;;;;;;;17.50;99.90;;;;;;5134152;28;19923;-69
2022/07/28 10:56:54;;;;;;;;;;;17.50;99.90;;;;;;5134141;28;19924;-69
2022/07/28 10:59:19;;;;;;;;;;;17.60;99.90;;;;;;5134055;28;20394;-69
2022/07/28 11:01:45;;;;;;;;;;;17.60;99.90;;;;;;5150240;27;19931;-69
2022/07/28 11:04:30;;;;;;;;;;;17.60;99.90;;;;;;5098880;28;19927;-70
2022/07/28 11:07:16;;;;;;;;;;;17.60;99.90;;;;;;5137240;27;20389;-71
2022/07/28 11:09:42;;;;;;;;;;;17.60;99.90;;;;;;5136739;27;20293;-69
2022/07/28 11:12:11;;;;;;;;;;;17.10;99.90;;;;;;5138024;27;19973;-68
2022/07/28 11:14:37;;;;;;;;;;;17.60;99.90;;;;;;5137719;27;20317;-69
2022/07/28 11:17:02;;;;;;;;;;;17.60;99.90;;;;;;5119698;27;19992;-70
2022/07/28 11:19:31;;;;;;;;;;;17.60;99.90;;;;;;5137527;27;20362;-69
2022/07/28 11:22:23;;;;;;;;;;;17.60;99.90;;;;;;5137481;27;19974;-71
2022/07/28 11:25:04;;;;;;;;;;;17.60;99.90;;;;;;5137254;27;20378;-69
2022/07/28 11:27:42;;;;;;;;;;;17.60;99.90;;;;;;5137237;27;19928;-69
2022/07/28 11:30:34;;;;;;;;;;;17.60;99.90;;;;;;5153134;27;19934;-68
2022/07/28 11:33:03;;;;;;;;;;;17.70;99.90;;;;;;5136960;27;20017;-70
2022/07/28 11:35:29;;;;;;;;;;;17.70;99.90;;;;;;5153312;27;19924;-69
2022/07/28 11:38:01;;;;;;;;;;;17.80;99.90;;;;;;5137299;27;20294;-70
2022/07/28 11:40:34;;;;;;;;;;;17.80;99.90;;;;;;5137128;27;19962;-69
2022/07/28 11:43:18;;;;;;;;;;;17.80;99.90;;;;;;5136937;27;19923;-69
2022/07/28 11:45:44;;;;;;;;;;;17.80;99.90;;;;;;5136835;27;19924;-68
2022/07/28 11:48:14;;;;;;;;;;;17.80;99.90;;;;;;5137043;27;19923;-69
2022/07/28 11:50:40;;;;;;;;;;;17.80;99.90;;;;;;5137038;27;20410;-69
2022/07/28 11:53:05;;;;;;;;;;;17.80;99.90;;;;;;5136708;27;20389;-69
2022/07/28 11:55:32;;;;;;;;;;;17.80;99.90;;;;;;5136775;27;19924;-69
2022/07/28 11:58:01;;;;;;;;;;;17.80;99.90;;;;;;5136579;27;19924;-69
2022/07/28 12:00:27;;;;;;;;;;;17.90;99.90;;;;;;5136535;27;20445;-70
2022/07/28 12:02:53;;;;;;;;;;;17.90;99.90;;;;;;5136942;27;19923;-69
2022/07/28 12:05:19;;;;;;;;;;;17.90;99.90;;;;;;5136742;27;20298;-69
2022/07/28 12:07:49;;;;;;;;;;;17.90;99.90;;;;;;5136583;27;19924;-69
2022/07/28 12:10:26;;;;;;;;;;;17.90;99.90;;;;;;5136412;27;19993;-68
2022/07/28 12:12:52;;;;;;;;;;;17.90;99.90;;;;;;5118244;27;19930;-69
2022/07/28 12:15:18;;;;;;;;;;;17.90;99.90;;;;;;5136606;27;19944;-70
2022/07/28 12:17:44;;;;;;;;;;;17.90;99.90;;;;;;5135928;27;19923;-69
2022/07/28 12:20:12;;;;;;;;;;;18.00;99.90;;;;;;5136422;27;19923;-69
2022/07/28 12:22:37;;;;;;;;;;;18.00;99.90;;;;;;5136391;27;19923;-69
2022/07/28 12:25:03;;;;;;;;;;;18.00;99.90;;;;;;5136128;27;19923;-69
2022/07/28 12:27:29;;;;;;;;;;;18.10;99.90;;;;;;5117151;27;19931;-69
2022/07/28 12:29:57;;;;;;;;;;;18.10;99.90;;;;;;5151080;27;21504;-70
2022/07/28 12:32:28;;;;;;;;;;;18.10;99.90;;;;;;5135983;27;20382;-70
2022/07/28 12:34:54;;;;;;;;;;;18.10;99.90;;;;;;5117332;27;19930;-69
2022/07/28 12:37:22;;;;;;;;;;;18.10;99.90;;;;;;5136041;27;19949;-70
2022/07/28 12:39:50;;;;;;;;;;;18.10;99.90;;;;;;5135867;27;19924;-70
2022/07/28 12:42:16;;;;;;;;;;;18.10;99.90;;;;;;5135808;27;19937;-70
2022/07/28 12:44:43;;;;;;;;;;;18.10;99.90;;;;;;5135744;27;20010;-69
2022/07/28 12:47:10;;;;;;;;;;;18.10;99.90;;;;;;5135950;27;19930;-69
2022/07/28 12:49:37;;;;;;;;;;;18.10;99.90;;;;;;5135727;27;19985;-69
2022/07/28 12:52:18;;;;;;;;;;;18.20;99.90;;;;;;5135743;27;19951;-69
2022/07/28 12:54:44;;;;;;;;;;;18.20;99.90;;;;;;5135686;27;19923;-69
2022/07/28 12:57:10;;;;;;;;;;;18.20;99.90;;;;;;5135394;27;20431;-69
2022/07/28 12:59:37;;;;;;;;;;;18.20;99.90;;;;;;5135682;27;20022;-69
2022/07/28 13:02:03;;;;;;;;;;;18.20;99.90;;;;;;5135490;27;20300;-69
2022/07/28 13:04:41;;;;;;;;;;;18.20;99.90;;;;;;5135438;27;19976;-69
2022/07/28 13:07:08;;;;;;;;;;;18.20;99.90;;;;;;5135373;27;19923;-70
2022/07/28 13:09:35;;;;;;;;;;;18.20;99.90;;;;;;5135205;27;19923;-70
2022/07/28 13:12:01;;;;;;;;;;;18.30;99.90;;;;;;5135499;27;20072;-71
2022/07/28 13:14:43;;;;;;;;;;;18.30;99.90;;;;;;5117245;27;20394;-69
2022/07/28 13:17:09;;;;;;;;;;;18.30;99.90;;;;;;5135299;27;19923;-69
2022/07/28 13:19:35;;;;;;;;;;;18.40;99.90;;;;;;5135178;27;19924;-69
2022/07/28 13:22:00;;;;;;;;;;;18.50;99.90;;;;;;5117089;27;19972;-69
2022/07/28 13:24:26;;;;;;;;;;;18.50;99.90;;;;;;5116937;27;19927;-69
2022/07/28 13:26:52;;;;;;;;;;;17.60;99.90;;;;;;5135013;27;19930;-69
2022/07/28 13:29:18;;;;;;;;;;;19.40;99.90;;;;;;5134023;27;19924;-69
2022/07/28 13:31:44;;;;;;;;;;;18.50;99.90;;;;;;5116813;27;19930;-69
2022/07/28 13:34:09;;;;;;;;;;;18.60;99.90;;;;;;5135011;27;19924;-70
2022/07/28 13:36:36;;;;;;;;;;;18.60;99.90;;;;;;5134907;27;20452;-69
2022/07/28 13:39:02;;;;;;;;;;;18.60;99.90;;;;;;5134895;27;20309;-70
2022/07/28 13:41:27;;;;;;;;;;;18.60;99.90;;;;;;5134941;27;19923;-69
2022/07/28 13:43:57;;;;;;;;;;;18.60;99.90;;;;;;5134853;27;20069;-68
2022/07/28 13:46:23;;;;;;;;;;;18.60;99.90;;;;;;5134848;27;20003;-69
2022/07/28 13:48:49;;;;;;;;;;;18.50;99.90;;;;;;5116414;27;19923;-69
2022/07/28 13:51:14;;;;;;;;;;;18.50;99.90;;;;;;5134722;27;20060;-69
2022/07/28 13:53:40;;;;;;;;;;;18.50;99.90;;;;;;5134679;27;19930;-69
2022/07/28 13:56:06;;;;;;;;;;;18.50;99.90;;;;;;5116570;28;19923;-69
2022/07/28 13:58:32;;;;;;;;;;;18.50;99.90;;;;;;5134756;28;19991;-69
2022/07/28 14:00:58;;;;;;;;;;;18.50;99.90;;;;;;5134654;28;20370;-71
2022/07/28 14:03:24;;;;;;;;;;;18.60;99.90;;;;;;5134659;28;19923;-69
2022/07/28 14:05:50;;;;;;;;;;;18.60;99.90;;;;;;5151004;27;19972;-69
2022/07/28 14:08:18;;;;;;;;;;;18.60;99.90;;;;;;5134448;28;19923;-69
2022/07/28 14:10:45;;;;;;;;;;;18.60;99.90;;;;;;5116259;28;19931;-71
2022/07/28 14:13:10;;;;;;;;;;;18.60;99.90;;;;;;5134636;28;19924;-69
2022/07/28 14:15:36;;;;;;;;;;;18.60;99.90;;;;;;5134605;28;19930;-69
2022/07/28 14:18:02;;;;;;;;;;;18.50;99.90;;;;;;5116427;28;20357;-70
2022/07/28 14:20:27;;;;;;;;;;;18.50;99.90;;;;;;5116374;28;20255;-70